createdAt,value
2022-10-10T00:01:13.513Z,5.87
2022-10-10T00:03:40.177Z,5.90
2022-10-10T00:06:07.333Z,5.80
2022-10-10T00:08:33.866Z,5.87
2022-10-10T00:11:00.240Z,6.40
2022-10-10T00:13:26.632Z,7.00
2022-10-10T00:15:53.042Z,6.30
2022-10-10T00:18:19.409Z,7.17
2022-10-10T00:20:46.264Z,6.57
2022-10-10T00:23:12.636Z,6.73
2022-10-10T00:25:39.004Z,6.00
2022-10-10T00:28:05.515Z,6.27
2022-10-10T00:30:31.934Z,7.67
2022-10-10T00:32:59.774Z,6.73
2022-10-10T00:35:26.973Z,6.73
2022-10-10T00:37:53.396Z,6.47
2022-10-10T00:40:20.380Z,6.90
2022-10-10T00:42:47.106Z,7.57
2022-10-10T00:45:25.442Z,7.27
2022-10-10T00:47:56.012Z,6.67
2022-10-10T00:50:24.858Z,6.70
2022-10-10T00:52:52.087Z,6.03
2022-10-10T00:55:19.317Z,6.33
2022-10-10T00:57:46.140Z,6.43
2022-10-10T01:00:12.883Z,7.33
2022-10-10T01:02:39.254Z,6.50
2022-10-10T01:05:05.952Z,6.80
2022-10-10T01:07:33.715Z,7.60
2022-10-10T01:10:05.383Z,6.90
2022-10-10T01:12:55.557Z,6.63
2022-10-10T01:15:36.768Z,7.20
2022-10-10T01:18:15.440Z,6.27
2022-10-10T01:21:23.544Z,7.87
2022-10-10T01:24:17.571Z,7.50
2022-10-10T01:26:49.999Z,7.57
2022-10-10T01:29:41.672Z,7.67
2022-10-10T01:32:37.821Z,7.47
2022-10-10T01:35:07.519Z,7.93
2022-10-10T01:37:59.670Z,8.07
2022-10-10T01:40:49.912Z,7.30
2022-10-10T01:43:17.774Z,7.80
2022-10-10T01:45:50.545Z,6.63
2022-10-10T01:48:29.377Z,7.47
2022-10-10T01:51:20.338Z,6.93
2022-10-10T01:54:08.976Z,7.03
2022-10-10T01:56:40.752Z,7.73
2022-10-10T01:59:28.840Z,7.80
2022-10-10T02:02:10.397Z,7.27
2022-10-10T02:04:52.980Z,7.37
2022-10-10T02:07:29.037Z,7.57
2022-10-10T02:09:57.387Z,8.40
2022-10-10T02:12:26.409Z,7.07
2022-10-10T02:14:57.242Z,8.43
2022-10-10T02:17:26.209Z,8.03
2022-10-10T02:19:58.961Z,8.10
2022-10-10T02:22:27.521Z,8.07
2022-10-10T02:24:55.089Z,7.60
2022-10-10T02:27:32.314Z,7.03
2022-10-10T02:30:01.129Z,7.30
2022-10-10T02:32:42.129Z,6.80
2022-10-10T02:35:13.221Z,7.13
2022-10-10T02:37:42.067Z,7.87
2022-10-10T02:40:11.302Z,7.87
2022-10-10T02:42:39.098Z,8.47
2022-10-10T02:45:05.977Z,7.37
2022-10-10T02:47:32.393Z,7.50
2022-10-10T02:49:58.763Z,7.17
2022-10-10T02:52:25.172Z,6.37
2022-10-10T02:54:51.650Z,6.20
2022-10-10T02:57:18.011Z,6.10
2022-10-10T02:59:44.394Z,6.50
2022-10-10T03:02:10.808Z,6.30
2022-10-10T03:04:37.256Z,6.57
2022-10-10T03:07:04.254Z,6.17
2022-10-10T03:09:30.714Z,6.83
2022-10-10T03:11:57.351Z,7.10
2022-10-10T03:14:24.117Z,6.23
2022-10-10T03:16:50.504Z,5.80
2022-10-10T03:19:16.917Z,6.60
2022-10-10T03:21:43.291Z,6.73
2022-10-10T03:24:09.683Z,7.20
2022-10-10T03:26:36.043Z,7.03
2022-10-10T03:29:03.854Z,5.97
2022-10-10T03:31:30.376Z,6.67
2022-10-10T03:33:56.836Z,6.97
2022-10-10T03:36:23.430Z,5.90
2022-10-10T03:38:49.929Z,6.33
2022-10-10T03:41:16.323Z,6.47
2022-10-10T03:43:42.737Z,6.30
2022-10-10T03:46:13.752Z,5.10
2022-10-10T03:48:42.294Z,6.93
2022-10-10T03:51:08.734Z,6.47
2022-10-10T03:53:35.119Z,6.63
2022-10-10T03:56:01.467Z,6.27
2022-10-10T03:58:27.836Z,5.93
2022-10-10T04:00:59.266Z,6.03
2022-10-10T04:03:26.450Z,5.87
2022-10-10T04:05:53.619Z,6.30
2022-10-10T04:08:20.356Z,5.47
2022-10-10T04:10:54.546Z,5.87
2022-10-10T04:13:21.751Z,5.37
2022-10-10T04:15:52.427Z,5.77
2022-10-10T04:18:19.382Z,5.90
2022-10-10T04:20:45.798Z,5.20
2022-10-10T04:23:12.156Z,5.47
2022-10-10T04:25:38.594Z,5.70
2022-10-10T04:28:05.122Z,5.80
2022-10-10T04:30:34.171Z,5.10
2022-10-10T04:33:00.948Z,5.43
2022-10-10T04:35:27.336Z,5.97
2022-10-10T04:37:53.712Z,5.43
2022-10-10T04:40:24.143Z,6.30
2022-10-10T04:42:54.103Z,5.37
2022-10-10T04:45:20.635Z,6.40
2022-10-10T04:47:47.003Z,6.03
2022-10-10T04:50:13.392Z,5.93
2022-10-10T04:52:39.721Z,6.03
2022-10-10T04:55:06.287Z,5.73
2022-10-10T04:57:32.700Z,6.30
2022-10-10T04:59:59.509Z,5.80
2022-10-10T05:02:25.892Z,6.00
2022-10-10T05:04:52.312Z,5.53
2022-10-10T05:07:18.700Z,5.70
2022-10-10T05:09:45.060Z,6.80
2022-10-10T05:12:11.395Z,5.63
2022-10-10T05:14:37.979Z,6.00
2022-10-10T05:17:04.619Z,5.63
2022-10-10T05:19:30.987Z,6.33
2022-10-10T05:21:57.368Z,6.27
2022-10-10T05:24:23.863Z,6.33
2022-10-10T05:26:50.201Z,6.73
2022-10-10T05:29:16.589Z,6.50
2022-10-10T05:31:43.001Z,6.63
2022-10-10T05:34:13.868Z,6.10
2022-10-10T05:36:43.226Z,6.27
2022-10-10T05:39:09.607Z,5.90
2022-10-10T05:41:36.656Z,6.80
2022-10-10T05:44:03.121Z,6.90
2022-10-10T05:46:29.531Z,5.67
2022-10-10T05:48:55.949Z,6.17
2022-10-10T05:51:22.299Z,4.83
2022-10-10T05:53:49.351Z,6.83
2022-10-10T05:56:17.018Z,6.80
2022-10-10T05:58:46.254Z,6.60
2022-10-10T06:01:12.720Z,7.00
2022-10-10T06:03:39.071Z,6.37
2022-10-10T06:06:07.102Z,6.43
2022-10-10T06:08:33.711Z,7.33
2022-10-10T06:11:05.170Z,7.67
2022-10-10T06:13:32.065Z,7.03
2022-10-10T06:15:58.487Z,7.90
2022-10-10T06:18:25.019Z,7.90
2022-10-10T06:20:51.446Z,7.57
2022-10-10T06:23:18.221Z,7.20
2022-10-10T06:25:44.610Z,7.00
2022-10-10T06:28:11.655Z,8.93
2022-10-10T06:30:43.119Z,8.30
2022-10-10T06:33:11.082Z,10.03
2022-10-10T06:35:48.350Z,9.63
2022-10-10T06:38:16.475Z,10.23
2022-10-10T06:40:43.730Z,11.17
2022-10-10T06:43:12.255Z,9.60
2022-10-10T06:45:41.135Z,9.37
2022-10-10T06:48:08.326Z,9.53
2022-10-10T06:50:35.200Z,8.47
2022-10-10T06:53:02.025Z,9.57
2022-10-10T06:55:28.386Z,10.80
2022-10-10T06:57:54.868Z,11.60
2022-10-10T07:00:21.396Z,10.77
2022-10-10T07:02:48.020Z,10.10
2022-10-10T07:05:16.413Z,9.67
2022-10-10T07:07:44.254Z,9.73
2022-10-10T07:10:13.269Z,8.77
2022-10-10T07:12:44.421Z,9.57
2022-10-10T07:15:11.682Z,8.10
2022-10-10T07:17:38.091Z,8.10
2022-10-10T07:20:05.098Z,7.80
2022-10-10T07:22:31.573Z,5.73
2022-10-10T07:24:58.160Z,6.43
2022-10-10T07:27:24.447Z,6.60
2022-10-10T07:29:50.816Z,4.77
2022-10-10T07:32:17.160Z,5.30
2022-10-10T07:34:43.654Z,5.70
2022-10-10T07:37:09.995Z,5.83
2022-10-10T07:39:36.386Z,5.57
2022-10-10T07:42:02.775Z,4.83
2022-10-10T07:44:33.638Z,5.27
2022-10-10T07:47:00.849Z,5.20
2022-10-10T07:49:27.350Z,4.87
2022-10-10T07:51:55.977Z,5.50
2022-10-10T07:54:23.684Z,4.80
2022-10-10T07:56:50.027Z,5.60
2022-10-10T07:59:16.375Z,4.57
2022-10-10T08:01:42.763Z,4.77
2022-10-10T08:04:09.121Z,4.80
2022-10-10T08:06:35.480Z,4.40
2022-10-10T08:09:01.822Z,4.00
2022-10-10T08:11:28.084Z,4.70
2022-10-10T08:13:54.424Z,4.43
2022-10-10T08:16:21.079Z,4.03
2022-10-10T08:18:47.397Z,5.67
2022-10-10T08:21:15.422Z,3.70
2022-10-10T08:23:41.998Z,4.30
2022-10-10T08:26:10.696Z,4.50
2022-10-10T08:28:38.326Z,3.87
2022-10-10T08:31:09.641Z,3.90
2022-10-10T08:33:35.997Z,4.03
2022-10-10T08:36:07.986Z,4.03
2022-10-10T08:38:35.178Z,4.47
2022-10-10T08:41:08.340Z,4.17
2022-10-10T08:43:41.982Z,4.20
2022-10-10T08:46:18.573Z,3.53
2022-10-10T08:48:46.346Z,4.10
2022-10-10T08:51:23.984Z,3.67
2022-10-10T08:53:53.506Z,3.53
2022-10-10T08:56:28.821Z,3.83
2022-10-10T08:59:00.393Z,3.63
2022-10-10T09:02:18.720Z,3.87
2022-10-10T09:04:24.934Z,2.93
2022-10-10T09:06:51.237Z,3.73
2022-10-10T09:09:20.293Z,3.23
2022-10-10T09:12:09.422Z,4.17
2022-10-10T09:15:05.538Z,3.30
2022-10-10T09:17:44.063Z,3.23
2022-10-10T09:20:19.754Z,3.63
2022-10-10T09:23:00.489Z,2.93
2022-10-10T09:25:53.091Z,3.37
2022-10-10T09:28:43.932Z,3.40
2022-10-10T09:31:18.563Z,2.83
2022-10-10T09:34:00.410Z,3.27
2022-10-10T09:36:31.656Z,3.00
2022-10-10T09:39:02.497Z,2.97
2022-10-10T09:41:36.077Z,3.60
2022-10-10T09:44:07.548Z,3.20
2022-10-10T09:46:33.974Z,3.17
2022-10-10T09:49:02.204Z,3.67
2022-10-10T09:51:29.754Z,3.27
2022-10-10T09:53:56.165Z,2.90
2022-10-10T09:56:24.200Z,3.60
2022-10-10T09:58:52.910Z,3.47
2022-10-10T10:01:25.234Z,3.17
2022-10-10T10:04:26.507Z,3.67
2022-10-10T10:07:03.147Z,4.37
2022-10-10T10:09:29.462Z,2.90
2022-10-10T10:11:56.792Z,4.10
2022-10-10T10:14:34.917Z,3.27
2022-10-10T10:17:16.694Z,3.40
2022-10-10T10:19:46.188Z,3.10
2022-10-10T10:22:33.513Z,3.20
2022-10-10T10:25:31.307Z,3.27
2022-10-10T10:28:31.389Z,3.37
2022-10-10T10:30:58.847Z,3.17
2022-10-10T10:33:37.641Z,3.40
2022-10-10T10:36:14.268Z,3.67
2022-10-10T10:38:45.834Z,3.23
2022-10-10T10:41:44.095Z,2.70
2022-10-10T10:44:30.557Z,3.10
2022-10-10T10:47:23.570Z,3.77
2022-10-10T10:50:24.305Z,3.93
2022-10-10T10:53:19.223Z,3.40
2022-10-10T10:55:49.675Z,3.10
2022-10-10T11:01:44.870Z,3.27
2022-10-10T11:05:17.603Z,2.63
2022-10-10T11:08:02.565Z,3.57
2022-10-10T11:10:56.891Z,3.17
2022-10-10T11:13:39.137Z,3.37
2022-10-10T11:16:24.451Z,3.37
2022-10-10T11:19:11.514Z,3.17
2022-10-10T11:21:46.387Z,3.10
2022-10-10T11:24:31.544Z,3.17
2022-10-10T11:27:04.209Z,2.93
2022-10-10T11:29:36.398Z,3.60
2022-10-10T11:32:10.797Z,2.70
2022-10-10T11:35:06.971Z,4.07
2022-10-10T11:37:39.906Z,3.10
2022-10-10T11:40:06.713Z,3.43
2022-10-10T11:42:41.857Z,2.90
2022-10-10T11:45:27.059Z,3.23
2022-10-10T11:48:07.751Z,3.67
2022-10-10T11:50:40.813Z,3.57
2022-10-10T11:53:13.092Z,3.37
2022-10-10T11:55:56.305Z,3.53
2022-10-10T11:58:31.915Z,3.47
2022-10-10T12:01:00.572Z,3.87
2022-10-10T12:03:26.939Z,3.87
2022-10-10T12:06:11.057Z,3.77
2022-10-10T12:08:40.238Z,3.73
2022-10-10T12:11:16.593Z,3.80
2022-10-10T12:13:46.800Z,3.50
2022-10-10T12:16:15.289Z,3.93
2022-10-10T12:18:44.181Z,4.30
2022-10-10T12:21:17.934Z,3.97
2022-10-10T12:23:48.169Z,4.20
2022-10-10T12:26:20.381Z,3.20
2022-10-10T12:29:10.245Z,3.80
2022-10-10T12:31:37.509Z,3.43
2022-10-10T12:34:14.667Z,3.80
2022-10-10T12:36:41.052Z,3.70
2022-10-10T12:39:10.785Z,3.40
2022-10-10T12:41:47.201Z,3.87
2022-10-10T12:44:24.695Z,4.80
2022-10-10T12:48:03.245Z,3.60
2022-10-10T12:50:36.169Z,4.03
2022-10-10T12:53:14.085Z,3.87
2022-10-10T12:55:47.807Z,3.50
2022-10-10T12:58:27.838Z,3.63
2022-10-10T13:00:59.361Z,4.17
2022-10-10T13:03:31.664Z,3.87
2022-10-10T13:06:16.758Z,3.77
2022-10-10T13:08:43.230Z,4.30
2022-10-10T13:11:14.701Z,3.47
2022-10-10T13:13:48.597Z,3.73
2022-10-10T13:16:18.727Z,3.43
2022-10-10T13:18:51.501Z,4.57
2022-10-10T13:21:19.678Z,3.13
2022-10-10T13:26:43.649Z,4.00
2022-10-10T13:29:23.414Z,4.27
2022-10-10T13:31:52.617Z,4.33
2022-10-10T13:34:26.330Z,3.50
2022-10-10T13:36:56.719Z,3.83
2022-10-10T13:39:23.571Z,3.93
2022-10-10T13:41:51.099Z,3.30
2022-10-10T13:44:30.167Z,3.37
2022-10-10T13:46:56.582Z,3.83
2022-10-10T13:49:29.431Z,3.33
2022-10-10T13:52:19.771Z,3.90
2022-10-10T13:54:46.979Z,3.57
2022-10-10T13:57:26.446Z,3.30
2022-10-10T14:00:00.745Z,4.17
2022-10-10T14:02:32.772Z,4.10
2022-10-10T14:05:03.601Z,4.53
2022-10-10T14:07:30.753Z,4.60
2022-10-10T14:09:59.002Z,3.90
2022-10-10T14:12:30.397Z,4.53
2022-10-10T14:14:59.129Z,4.90
2022-10-10T14:17:26.270Z,3.90
2022-10-10T14:19:53.016Z,3.90
2022-10-10T14:22:19.922Z,3.53
2022-10-10T14:24:46.510Z,3.57
2022-10-10T14:27:20.590Z,4.13
2022-10-10T14:29:47.436Z,3.17
2022-10-10T14:32:15.106Z,3.83
2022-10-10T14:34:41.993Z,3.30
2022-10-10T14:37:22.745Z,2.70
2022-10-10T14:39:49.137Z,4.27
2022-10-10T14:42:16.334Z,2.93
2022-10-10T14:44:42.875Z,3.03
2022-10-10T14:47:15.981Z,3.10
2022-10-10T14:49:42.397Z,2.87
2022-10-10T14:52:08.685Z,3.20
2022-10-10T14:54:35.000Z,3.07
2022-10-10T14:57:09.549Z,3.20
2022-10-10T14:59:49.811Z,3.20
2022-10-10T15:02:20.833Z,3.00
2022-10-10T15:04:47.334Z,2.50
2022-10-10T15:07:15.033Z,3.57
2022-10-10T15:10:02.474Z,4.40
2022-10-10T15:12:30.301Z,3.77
2022-10-10T15:14:56.592Z,3.30
2022-10-10T15:17:24.286Z,3.83
2022-10-10T15:19:50.675Z,4.03
2022-10-10T15:22:16.964Z,3.60
2022-10-10T15:24:43.503Z,3.67
2022-10-10T15:27:09.754Z,3.73
2022-10-10T15:29:38.454Z,3.37
2022-10-10T15:32:05.217Z,3.33
2022-10-10T15:34:31.614Z,3.30
2022-10-10T15:36:57.953Z,3.70
2022-10-10T15:39:24.213Z,3.40
2022-10-10T15:41:50.468Z,3.17
2022-10-10T15:44:17.865Z,3.90
2022-10-10T15:46:45.504Z,4.20
2022-10-10T15:49:12.345Z,3.83
2022-10-10T15:51:45.161Z,4.47
2022-10-10T15:54:12.466Z,4.27
2022-10-10T15:56:38.776Z,4.30
2022-10-10T15:59:05.538Z,4.30
2022-10-10T16:01:32.109Z,4.57
2022-10-10T16:03:58.496Z,4.80
2022-10-10T16:06:25.860Z,4.47
2022-10-10T16:09:10.109Z,5.57
2022-10-10T16:11:39.480Z,5.43
2022-10-10T16:14:05.725Z,5.83
2022-10-10T16:16:32.202Z,6.00
2022-10-10T16:18:59.646Z,6.63
2022-10-10T16:21:26.418Z,7.47
2022-10-10T16:23:57.719Z,6.93
2022-10-10T16:26:28.974Z,6.83
2022-10-10T16:28:56.324Z,7.53
2022-10-10T16:31:24.915Z,7.37
2022-10-10T16:33:51.340Z,7.30
2022-10-10T16:36:25.218Z,7.13
2022-10-10T16:38:53.616Z,7.60
2022-10-10T16:41:45.824Z,7.87
2022-10-10T16:44:06.541Z,6.70
2022-10-10T16:46:32.858Z,8.23
2022-10-10T16:48:59.670Z,7.87
2022-10-10T16:51:28.270Z,7.40
2022-10-10T16:53:55.358Z,7.57
2022-10-10T16:56:22.362Z,8.07
2022-10-10T16:58:50.724Z,8.97
2022-10-10T17:01:23.234Z,7.93
2022-10-10T17:03:50.917Z,8.03
2022-10-10T17:06:22.827Z,8.67
2022-10-10T17:08:51.106Z,8.57
2022-10-10T17:11:20.336Z,8.90
2022-10-10T17:13:47.412Z,8.33
2022-10-10T17:16:53.617Z,5.70
2022-10-10T17:19:03.106Z,4.67
2022-10-10T17:21:29.782Z,3.47
2022-10-10T17:23:56.045Z,2.40
2022-10-10T17:26:22.966Z,2.20
2022-10-10T17:28:50.390Z,1.30
2022-10-10T17:31:17.363Z,1.47
2022-10-10T17:33:49.738Z,1.57
2022-10-10T17:36:21.865Z,1.30
2022-10-10T17:38:48.361Z,1.60
2022-10-10T17:41:19.294Z,1.27
2022-10-10T17:43:45.983Z,1.33
2022-10-10T17:46:33.598Z,1.47
2022-10-10T17:49:00.460Z,1.43
2022-10-10T17:51:27.756Z,1.97
2022-10-10T17:53:54.214Z,1.40
2022-10-10T17:56:22.052Z,2.10
2022-10-10T17:58:49.486Z,1.40
2022-10-10T18:01:17.163Z,2.70
2022-10-10T18:03:43.652Z,1.70
2022-10-10T18:06:15.532Z,1.33
2022-10-10T18:08:42.222Z,1.70
2022-10-10T18:11:13.563Z,1.67
2022-10-10T18:13:40.419Z,1.87
2022-10-10T18:16:12.456Z,2.27
2022-10-10T18:18:40.191Z,2.30
2022-10-10T18:21:10.841Z,1.43
2022-10-10T18:23:37.817Z,1.73
2022-10-10T18:26:07.089Z,1.43
2022-10-10T18:28:35.037Z,2.23
2022-10-10T18:31:08.336Z,1.87
2022-10-10T18:33:37.610Z,1.43
2022-10-10T18:36:08.926Z,1.70
2022-10-10T18:38:35.699Z,1.60
2022-10-10T18:41:33.722Z,1.80
2022-10-10T18:44:05.399Z,1.67
2022-10-10T18:46:32.144Z,1.33
2022-10-10T18:48:59.545Z,2.00
2022-10-10T18:51:26.647Z,1.40
2022-10-10T18:53:56.899Z,1.73
2022-10-10T18:56:25.918Z,2.33
2022-10-10T18:58:56.663Z,2.23
2022-10-10T19:01:25.122Z,1.87
2022-10-10T19:03:52.767Z,1.70
2022-10-10T19:06:19.186Z,2.27
2022-10-10T19:08:45.750Z,1.77
2022-10-10T19:11:19.387Z,1.90
2022-10-10T19:13:46.210Z,2.83
2022-10-10T19:16:12.568Z,1.83
2022-10-10T19:18:38.942Z,2.80
2022-10-10T19:21:06.173Z,1.70
2022-10-10T19:23:33.420Z,1.70
2022-10-10T19:26:04.915Z,2.13
2022-10-10T19:28:32.169Z,1.87
2022-10-10T19:31:03.499Z,1.50
2022-10-10T19:33:30.022Z,1.83
2022-10-10T19:35:56.280Z,1.13
2022-10-10T19:38:22.640Z,1.80
2022-10-10T19:40:49.658Z,2.00
2022-10-10T19:43:17.075Z,2.27
2022-10-10T19:45:46.988Z,1.60
2022-10-10T19:48:14.893Z,1.93
2022-10-10T19:50:42.896Z,1.50
2022-10-10T19:53:10.296Z,1.47
2022-10-10T19:55:36.580Z,1.67
2022-10-10T19:58:02.919Z,1.20
2022-10-10T20:00:29.476Z,1.57
2022-10-10T20:02:55.934Z,1.67
2022-10-10T20:05:22.309Z,2.07
2022-10-10T20:07:52.484Z,1.57
2022-10-10T20:10:19.935Z,1.67
2022-10-10T20:12:47.248Z,1.70
2022-10-10T20:15:13.682Z,1.67
2022-10-10T20:17:40.098Z,2.30
2022-10-10T20:20:07.460Z,1.87
2022-10-10T20:22:34.443Z,2.07
2022-10-10T20:25:00.914Z,1.70
2022-10-10T20:27:31.037Z,1.80
2022-10-10T20:29:58.122Z,1.60
2022-10-10T20:32:24.596Z,1.70
2022-10-10T20:34:50.932Z,2.23
2022-10-10T20:37:17.298Z,2.57
2022-10-10T20:39:43.650Z,1.97
2022-10-10T20:42:10.032Z,2.13
2022-10-10T20:44:36.389Z,2.63
2022-10-10T20:47:03.173Z,2.83
2022-10-10T20:49:29.569Z,3.37
2022-10-10T20:51:55.906Z,4.03
2022-10-10T20:54:23.504Z,3.77
2022-10-10T20:56:50.021Z,3.60
2022-10-10T20:59:17.958Z,2.90
2022-10-10T21:01:47.654Z,2.70
2022-10-10T21:04:14.216Z,3.23
2022-10-10T21:06:42.671Z,3.27
2022-10-10T21:09:11.585Z,3.03
2022-10-10T21:11:39.522Z,3.70
2022-10-10T21:14:06.490Z,3.80
2022-10-10T21:16:35.998Z,3.80
2022-10-10T21:19:03.594Z,3.13
2022-10-10T21:21:32.465Z,3.50
2022-10-10T21:23:59.079Z,3.60
2022-10-10T21:26:27.562Z,3.83
2022-10-10T21:28:55.033Z,4.37
2022-10-10T21:31:31.195Z,4.30
2022-10-10T21:33:59.746Z,4.30
2022-10-10T21:36:26.528Z,3.90
2022-10-10T21:38:53.553Z,5.03
2022-10-10T21:41:21.128Z,5.80
2022-10-10T21:43:51.501Z,5.87
2022-10-10T21:46:23.169Z,5.30
2022-10-10T21:48:53.300Z,5.97
2022-10-10T21:51:20.856Z,6.13
2022-10-10T21:53:47.529Z,5.90
2022-10-10T21:56:14.494Z,5.37
2022-10-10T21:58:42.238Z,5.10
2022-10-10T22:01:08.614Z,5.63
2022-10-10T22:03:35.017Z,4.90
2022-10-10T22:06:11.258Z,4.33
2022-10-10T22:08:39.051Z,4.13
2022-10-10T22:11:08.809Z,5.30
2022-10-10T22:13:35.294Z,5.20
2022-10-10T22:16:02.974Z,5.33
2022-10-10T22:18:30.181Z,5.70
2022-10-10T22:20:57.030Z,4.40
2022-10-10T22:23:23.403Z,4.23
2022-10-10T22:25:51.430Z,3.77
2022-10-10T22:28:18.629Z,4.00
2022-10-10T22:30:45.370Z,4.33
2022-10-10T22:33:11.692Z,4.30
2022-10-10T22:35:38.360Z,5.23
2022-10-10T22:38:04.705Z,4.77
2022-10-10T22:40:31.050Z,4.83
2022-10-10T22:42:57.576Z,5.40
2022-10-10T22:45:24.337Z,5.30
2022-10-10T22:47:50.758Z,4.77
2022-10-10T22:50:18.324Z,4.83
2022-10-10T22:52:44.682Z,4.43
2022-10-10T22:55:14.490Z,3.47
2022-10-10T22:57:44.474Z,4.60
2022-10-10T23:00:11.755Z,4.93
2022-10-10T23:02:38.001Z,5.23
2022-10-10T23:05:04.806Z,4.43
2022-10-10T23:07:31.162Z,5.07
2022-10-10T23:09:57.477Z,5.43
2022-10-10T23:12:23.839Z,4.37
2022-10-10T23:14:50.206Z,5.40
2022-10-10T23:17:16.657Z,4.50
2022-10-10T23:19:42.976Z,4.20
2022-10-10T23:22:09.288Z,4.80
2022-10-10T23:24:36.698Z,6.27
2022-10-10T23:27:03.027Z,4.90
2022-10-10T23:29:29.378Z,4.73
2022-10-10T23:31:55.704Z,4.70
2022-10-10T23:34:22.025Z,4.37
2022-10-10T23:36:48.360Z,4.37
2022-10-10T23:39:14.694Z,3.70
2022-10-10T23:41:41.014Z,4.77
2022-10-10T23:44:07.400Z,4.03
2022-10-10T23:46:33.722Z,3.97
2022-10-10T23:49:00.093Z,5.20
2022-10-10T23:51:29.366Z,6.10
2022-10-10T23:53:56.697Z,5.97
2022-10-10T23:56:23.056Z,5.17
2022-10-10T23:58:49.562Z,4.53
